Time;durP1;ratioP1;P1;durP2;ratioP2;P2;SDS_P1;SDS_P2;PMS_P1;PMS_P2;Temp;Humidity;BMP_temperature;BMP_pressure;BME280_temperature;BME280_humidity;BME280_pressure;Samples;Min_cycle;Max_cycle;Signal;HPM_P1;HPM_P2
2021/01/02 00:02:45;;;;;;;5.82;1.10;;;3.90;56.10;;;;;;5026356;28;80010;-70
2021/01/02 00:05:12;;;;;;;1.05;0.32;;;3.90;55.80;;;;;;5026683;28;80965;-70
2021/01/02 00:08:08;;;;;;;1.92;0.20;;;3.90;54.90;;;;;;5025392;28;80563;-72
2021/01/02 00:11:13;;;;;;;4.00;1.00;;;3.90;54.40;;;;;;5026745;28;80909;-73
2021/01/02 00:14:00;;;;;;;1.40;0.25;;;3.90;54.10;;;;;;5026625;28;80156;-79
2021/01/02 00:16:45;;;;;;;0.75;0.30;;;4.00;54.10;;;;;;5027157;28;79870;-77
2021/01/02 00:19:33;;;;;;;2.55;0.80;;;4.00;53.90;;;;;;5026145;28;80137;-74
2021/01/02 00:22:10;;;;;;;2.72;0.50;;;4.00;53.90;;;;;;4958357;28;80690;-76
2021/01/02 00:24:43;;;;;;;1.80;0.60;;;4.00;54.10;;;;;;4992095;28;79940;-72
2021/01/02 00:27:26;;;;;;;1.85;0.80;;;3.90;54.30;;;;;;5026693;28;79760;-76
2021/01/02 00:30:06;;;;;;;0.95;0.38;;;3.90;54.60;;;;;;5026105;28;80231;-72
2021/01/02 00:33:12;;;;;;;0.73;0.28;;;3.90;54.80;;;;;;5026472;28;79820;-72
2021/01/02 00:35:41;;;;;;;1.38;0.45;;;3.90;54.70;;;;;;4979860;28;80882;-74
2021/01/02 00:38:08;;;;;;;1.58;0.40;;;3.90;54.80;;;;;;5025187;28;80943;-75
2021/01/02 00:40:37;;;;;;;0.95;0.20;;;3.90;55.30;;;;;;5026421;28;80133;-76
2021/01/02 00:43:06;;;;;;;2.60;0.30;;;3.80;55.30;;;;;;5025738;28;80337;-77
2021/01/02 00:45:33;;;;;;;3.15;1.10;;;3.80;55.60;;;;;;5007834;28;80544;-75
2021/01/02 00:48:04;;;;;;;4.07;0.90;;;3.70;55.80;;;;;;5007739;28;79980;-78
2021/01/02 00:50:30;;;;;;;2.40;0.50;;;3.70;55.90;;;;;;5026170;28;79818;-78
2021/01/02 00:53:03;;;;;;;1.85;0.77;;;3.70;56.10;;;;;;5025933;28;79842;-79
2021/01/02 00:55:39;;;;;;;1.85;0.30;;;3.60;56.30;;;;;;5025729;28;80474;-79
2021/01/02 00:58:12;;;;;;;2.33;0.30;;;3.60;56.50;;;;;;5025904;28;80648;-77
2021/01/02 01:00:40;;;;;;;0.73;0.40;;;3.60;56.60;;;;;;5025957;28;80703;-77
2021/01/02 01:03:30;;;;;;;2.65;0.93;;;3.50;56.70;;;;;;5007998;28;80338;-73
2021/01/02 01:06:00;;;;;;;2.33;0.20;;;3.60;56.80;;;;;;5029410;28;80883;-71
2021/01/02 01:08:26;;;;;;;0.98;0.20;;;3.50;57.00;;;;;;5029614;28;80630;-74
2021/01/02 01:10:52;;;;;;;0.85;0.20;;;3.50;57.10;;;;;;5010571;28;83083;-72
2021/01/02 01:13:21;;;;;;;1.10;0.30;;;3.50;57.40;;;;;;5011905;28;81243;-72
2021/01/02 01:15:47;;;;;;;1.35;0.40;;;3.60;57.50;;;;;;5029015;28;80088;-73
2021/01/02 01:18:18;;;;;;;0.68;0.25;;;3.50;57.50;;;;;;5029187;28;80928;-72
2021/01/02 01:20:45;;;;;;;1.60;0.30;;;3.50;57.30;;;;;;5029144;28;80331;-73
2021/01/02 01:23:31;;;;;;;1.30;0.30;;;3.50;57.20;;;;;;5028557;28;80728;-70
2021/01/02 01:26:35;;;;;;;3.05;0.30;;;3.50;57.30;;;;;;5010639;28;80423;-68
2021/01/02 01:29:02;;;;;;;;;;;3.50;57.40;;;;;;5029344;28;80560;-69
2021/01/02 01:31:46;;;;;;;1.05;0.47;;;3.40;57.30;;;;;;5034161;28;80850;-75
2021/01/02 01:34:21;;;;;;;1.90;0.25;;;3.40;57.60;;;;;;5010095;28;79854;-70
2021/01/02 01:37:06;;;;;;;2.80;0.50;;;3.40;57.80;;;;;;5027795;28;79823;-76
2021/01/02 01:39:33;;;;;;;;;;;3.40;57.90;;;;;;5028689;28;80757;-71
2021/01/02 01:42:06;;;;;;;0.85;0.20;;;3.30;57.80;;;;;;5033403;28;80173;-75
2021/01/02 01:44:50;;;;;;;1.02;0.47;;;3.20;58.20;;;;;;5009820;28;81229;-76
2021/01/02 01:47:20;;;;;;;0.70;0.10;;;3.30;58.40;;;;;;5028755;28;80876;-76
2021/01/02 01:49:55;;;;;;;3.08;0.52;;;3.20;58.30;;;;;;5010268;28;80874;-70
2021/01/02 01:52:45;;;;;;;0.68;0.20;;;3.30;58.40;;;;;;5028723;28;79911;-70
2021/01/02 01:55:18;;;;;;;0.88;0.20;;;3.30;58.40;;;;;;5028874;28;81167;-71
2021/01/02 01:57:49;;;;;;;0.85;0.20;;;3.20;58.70;;;;;;5010153;28;80485;-70
2021/01/02 02:00:18;;;;;;;1.92;0.40;;;3.30;58.50;;;;;;4989971;28;79994;-74
2021/01/02 02:02:46;;;;;;;1.38;0.60;;;3.20;58.50;;;;;;4990518;28;80530;-73
2021/01/02 02:05:18;;;;;;;1.38;0.40;;;3.20;58.50;;;;;;5008477;28;80382;-71
2021/01/02 02:07:53;;;;;;;2.05;0.82;;;3.20;58.40;;;;;;5006951;28;80822;-76
2021/01/02 02:10:30;;;;;;;1.52;0.20;;;3.20;58.50;;;;;;4989838;28;80127;-76
2021/01/02 02:13:10;;;;;;;1.17;0.65;;;3.20;58.60;;;;;;5007925;28;80261;-71
2021/01/02 02:15:50;;;;;;;2.13;0.43;;;3.10;58.60;;;;;;5006080;28;80731;-71
2021/01/02 02:18:21;;;;;;;1.50;0.45;;;3.10;58.80;;;;;;5008314;28;79933;-71
2021/01/02 02:20:48;;;;;;;3.33;0.93;;;3.10;58.90;;;;;;5007684;28;80513;-72
2021/01/02 02:23:15;;;;;;;1.65;0.60;;;3.00;58.90;;;;;;5007978;28;80798;-75
2021/01/02 02:25:58;;;;;;;2.75;0.93;;;3.00;59.10;;;;;;5008030;28;80231;-69
2021/01/02 02:28:33;;;;;;;4.53;2.17;;;3.00;59.30;;;;;;5008248;28;79757;-70
2021/01/02 02:31:05;;;;;;;2.53;1.00;;;3.00;59.30;;;;;;5007763;28;80718;-75
2021/01/02 02:33:31;;;;;;;1.30;0.40;;;3.00;59.30;;;;;;4990248;28;80417;-70
2021/01/02 02:36:02;;;;;;;1.20;0.40;;;2.90;59.30;;;;;;5007816;28;81049;-73
2021/01/02 02:38:36;;;;;;;2.50;0.47;;;2.90;59.30;;;;;;5007832;28;80149;-69
2021/01/02 02:41:10;;;;;;;0.93;0.32;;;2.80;59.20;;;;;;4990511;28;81943;-72
2021/01/02 02:43:41;;;;;;;2.80;0.68;;;2.70;59.20;;;;;;5007781;28;79663;-70
2021/01/02 02:46:13;;;;;;;1.30;0.55;;;2.70;59.10;;;;;;5007703;28;80970;-74
2021/01/02 02:48:46;;;;;;;2.47;0.90;;;2.70;58.90;;;;;;5007687;28;80418;-76
2021/01/02 02:51:14;;;;;;;2.03;0.75;;;2.60;58.70;;;;;;5007520;28;80606;-74
2021/01/02 02:53:41;;;;;;;3.53;0.70;;;2.60;58.50;;;;;;4989238;28;80844;-73
2021/01/02 02:56:08;;;;;;;6.78;1.20;;;2.70;58.50;;;;;;5007793;28;80613;-71
2021/01/02 02:58:35;;;;;;;2.33;0.85;;;2.70;58.30;;;;;;5014028;28;80299;-73
2021/01/02 03:01:00;;;;;;;4.00;1.23;;;2.60;58.20;;;;;;5027516;28;80885;-76
2021/01/02 03:03:29;;;;;;;2.35;0.88;;;2.70;58.10;;;;;;5027483;28;80065;-72
2021/01/02 03:05:55;;;;;;;1.73;0.55;;;2.60;58.00;;;;;;4992338;28;80012;-72
2021/01/02 03:08:22;;;;;;;1.20;0.30;;;2.60;57.80;;;;;;5027406;28;79751;-70
2021/01/02 03:10:47;;;;;;;1.52;0.43;;;2.60;57.60;;;;;;5008539;28;79765;-74
2021/01/02 03:13:14;;;;;;;0.30;0.08;;;2.60;57.50;;;;;;5027174;28;81251;-73
2021/01/02 03:15:42;;;;;;;0.70;0.20;;;2.60;56.90;;;;;;5025767;28;80779;-73
2021/01/02 03:18:11;;;;;;;3.90;0.50;;;2.60;56.80;;;;;;5027133;28;80030;-71
2021/01/02 03:20:37;;;;;;;1.50;0.22;;;2.60;56.70;;;;;;5008945;28;81057;-70
2021/01/02 03:23:03;;;;;;;1.48;0.20;;;2.60;56.00;;;;;;5008695;28;80426;-70
2021/01/02 03:25:29;;;;;;;6.60;0.60;;;2.60;55.60;;;;;;5008882;28;80964;-72
2021/01/02 03:27:56;;;;;;;2.50;0.63;;;2.70;55.50;;;;;;5026017;28;80243;-73
2021/01/02 03:30:26;;;;;;;3.63;1.65;;;2.60;55.40;;;;;;5008618;28;80626;-72
2021/01/02 03:32:52;;;;;;;2.95;0.73;;;2.70;55.50;;;;;;5027522;28;79713;-72
2021/01/02 03:35:18;;;;;;;1.08;0.45;;;2.60;55.40;;;;;;5026476;28;80728;-73
2021/01/02 03:37:46;;;;;;;1.60;0.50;;;2.70;55.30;;;;;;5008427;28;79866;-74
2021/01/02 03:40:15;;;;;;;1.33;0.43;;;2.60;55.30;;;;;;5027463;28;80255;-72
2021/01/02 03:42:44;;;;;;;1.10;0.40;;;2.70;55.30;;;;;;5026812;28;80924;-74
2021/01/02 03:45:12;;;;;;;1.42;0.50;;;2.50;55.20;;;;;;5027189;28;81146;-73
2021/01/02 03:47:38;;;;;;;2.35;0.52;;;2.60;55.20;;;;;;5026475;28;80857;-73
2021/01/02 03:50:05;;;;;;;1.88;0.98;;;2.60;55.10;;;;;;5025973;28;83690;-72
2021/01/02 03:52:32;;;;;;;4.45;1.70;;;2.60;54.90;;;;;;5026808;28;80188;-70
2021/01/02 03:54:58;;;;;;;1.42;0.60;;;2.60;54.80;;;;;;5008385;28;80662;-71
2021/01/02 03:57:24;;;;;;;6.13;2.90;;;2.50;54.60;;;;;;5026457;28;80168;-70
2021/01/02 03:59:51;;;;;;;1.77;0.63;;;2.50;54.40;;;;;;5026283;28;80644;-73
2021/01/02 04:02:16;;;;;;;1.48;0.55;;;2.50;54.30;;;;;;5026417;28;80239;-75
2021/01/02 04:04:42;;;;;;;1.55;0.40;;;2.60;54.30;;;;;;5026381;28;80691;-70
2021/01/02 04:07:08;;;;;;;4.35;0.85;;;2.50;54.20;;;;;;5026561;28;80752;-70
2021/01/02 04:09:34;;;;;;;1.05;0.20;;;2.50;54.00;;;;;;5025945;28;79930;-74
2021/01/02 04:12:00;;;;;;;1.40;0.20;;;2.50;54.00;;;;;;5026736;28;80322;-71
2021/01/02 04:14:26;;;;;;;1.42;0.30;;;2.50;54.10;;;;;;5025765;28;79890;-74
2021/01/02 04:16:52;;;;;;;0.98;0.30;;;2.50;54.10;;;;;;5026755;28;81011;-70
2021/01/02 04:19:19;;;;;;;4.60;0.73;;;2.40;54.20;;;;;;5026585;28;80480;-71
2021/01/02 04:21:46;;;;;;;2.17;0.40;;;2.40;54.30;;;;;;5026120;28;80274;-70
2021/01/02 04:24:12;;;;;;;2.45;0.95;;;2.40;54.30;;;;;;5026256;28;80674;-74
2021/01/02 04:26:39;;;;;;;1.17;0.30;;;2.40;54.40;;;;;;5025817;28;79979;-74
2021/01/02 04:29:05;;;;;;;2.83;0.57;;;2.40;54.20;;;;;;5007873;28;80515;-70
2021/01/02 04:31:41;;;;;;;2.55;0.75;;;2.40;54.20;;;;;;5007495;28;81561;-71
2021/01/02 04:34:08;;;;;;;0.90;0.30;;;2.40;54.20;;;;;;5008156;28;79794;-73
2021/01/02 04:36:36;;;;;;;2.15;0.20;;;2.40;54.10;;;;;;5026203;28;80230;-70
2021/01/02 04:39:04;;;;;;;1.65;0.57;;;2.30;54.10;;;;;;5008519;28;83698;-75
2021/01/02 04:41:32;;;;;;;2.15;0.50;;;2.30;54.00;;;;;;5029668;28;80217;-72
2021/01/02 04:44:00;;;;;;;1.13;0.22;;;2.40;53.80;;;;;;5029505;28;79980;-72
2021/01/02 04:46:27;;;;;;;1.67;0.20;;;2.40;53.70;;;;;;5028100;28;80478;-76
2021/01/02 04:48:53;;;;;;;0.77;0.30;;;2.30;53.60;;;;;;5028926;28;81274;-78
2021/01/02 04:51:19;;;;;;;1.70;0.47;;;2.30;53.50;;;;;;5029541;28;80220;-76
2021/01/02 04:53:45;;;;;;;2.80;1.17;;;2.30;53.50;;;;;;4993562;28;80954;-82
2021/01/02 04:56:12;;;;;;;9.85;2.13;;;2.30;53.60;;;;;;5028958;28;80227;-75
2021/01/02 04:58:41;;;;;;;3.75;1.48;;;2.30;53.60;;;;;;5029008;28;80911;-73
2021/01/02 05:01:08;;;;;;;2.15;0.80;;;2.30;53.60;;;;;;5029490;28;79726;-74
2021/01/02 05:03:35;;;;;;;2.45;0.95;;;2.20;53.50;;;;;;5029070;28;80800;-71
2021/01/02 05:06:02;;;;;;;3.67;0.80;;;2.20;53.00;;;;;;5028679;28;82370;-72
2021/01/02 05:08:29;;;;;;;2.45;0.50;;;2.20;52.90;;;;;;5029357;28;80446;-73
2021/01/02 05:10:59;;;;;;;2.28;0.40;;;2.20;52.80;;;;;;5028912;28;80242;-73
2021/01/02 05:13:33;;;;;;;1.17;0.30;;;2.20;53.00;;;;;;5010462;28;79801;-72
2021/01/02 05:16:27;;;;;;;1.70;0.20;;;2.20;53.10;;;;;;5029452;28;80749;-71
2021/01/02 05:19:04;;;;;;;3.28;0.30;;;2.20;52.80;;;;;;5029253;28;79814;-71
2021/01/02 05:21:31;;;;;;;3.92;0.30;;;2.20;53.00;;;;;;5028866;28;80210;-73
2021/01/02 05:24:12;;;;;;;3.22;0.68;;;2.20;53.20;;;;;;5028748;28;80582;-71
2021/01/02 05:26:43;;;;;;;3.15;0.63;;;2.20;53.40;;;;;;5010858;28;80383;-72
2021/01/02 05:29:22;;;;;;;1.98;0.20;;;2.20;53.60;;;;;;5028940;28;80799;-79
2021/01/02 05:31:59;;;;;;;1.83;0.40;;;2.20;53.50;;;;;;5028833;28;80615;-71
2021/01/02 05:34:26;;;;;;;1.02;0.32;;;2.20;53.50;;;;;;5028889;28;80975;-71
2021/01/02 05:37:05;;;;;;;5.63;0.90;;;2.20;53.50;;;;;;5028679;28;80101;-74
2021/01/02 05:39:41;;;;;;;8.35;2.72;;;2.20;53.50;;;;;;5028883;28;81177;-72
2021/01/02 05:42:08;;;;;;;2.35;0.65;;;2.20;53.50;;;;;;5029175;28;80976;-70
2021/01/02 05:44:38;;;;;;;2.03;0.70;;;2.20;53.60;;;;;;5028444;28;80510;-73
2021/01/02 05:47:05;;;;;;;0.73;0.25;;;2.10;53.90;;;;;;5010072;28;80548;-72
2021/01/02 05:49:37;;;;;;;1.33;0.30;;;2.20;54.10;;;;;;5028810;28;80582;-75
2021/01/02 05:52:06;;;;;;;1.95;0.50;;;2.20;54.30;;;;;;5027312;28;80141;-70
2021/01/02 05:54:33;;;;;;;3.30;0.80;;;2.10;54.50;;;;;;5029124;28;80976;-73
2021/01/02 05:57:02;;;;;;;1.83;0.60;;;2.10;54.80;;;;;;5028144;28;79836;-71
2021/01/02 05:59:29;;;;;;;2.15;0.60;;;2.10;55.00;;;;;;5027685;28;80622;-72
2021/01/02 06:01:55;;;;;;;3.20;0.60;;;2.10;55.40;;;;;;5010622;28;80719;-75
2021/01/02 06:04:20;;;;;;;3.22;1.17;;;2.10;55.40;;;;;;5028253;28;80443;-71
2021/01/02 06:07:04;;;;;;;5.80;1.40;;;2.10;55.40;;;;;;5010027;28;80554;-72
2021/01/02 06:09:33;;;;;;;2.70;0.88;;;2.10;55.70;;;;;;5010011;28;80748;-72
2021/01/02 06:12:03;;;;;;;2.13;0.50;;;2.10;55.70;;;;;;5028893;28;79819;-72
2021/01/02 06:14:32;;;;;;;2.63;0.50;;;2.10;55.90;;;;;;5027233;28;80226;-73
2021/01/02 06:17:05;;;;;;;2.13;0.50;;;2.20;55.80;;;;;;5009891;28;80514;-73
2021/01/02 06:19:33;;;;;;;1.92;0.43;;;2.20;55.90;;;;;;5028295;28;80677;-74
2021/01/02 06:21:59;;;;;;;1.40;0.40;;;2.10;56.20;;;;;;5028158;28;80196;-75
2021/01/02 06:24:25;;;;;;;1.17;0.40;;;2.10;56.30;;;;;;5028108;28;80590;-75
2021/01/02 06:26:53;;;;;;;1.33;0.60;;;2.10;56.30;;;;;;5028213;28;80218;-79
2021/01/02 06:29:19;;;;;;;1.00;0.28;;;2.10;56.50;;;;;;5028137;28;80421;-73
2021/01/02 06:31:45;;;;;;;2.17;0.20;;;2.10;56.80;;;;;;5028019;28;80795;-70
2021/01/02 06:34:11;;;;;;;1.60;0.47;;;2.10;57.10;;;;;;5027923;28;80511;-72
2021/01/02 06:36:39;;;;;;;2.13;0.50;;;2.10;57.30;;;;;;5027576;28;80007;-70
2021/01/02 06:39:23;;;;;;;5.45;0.77;;;2.10;57.50;;;;;;5009709;28;80686;-70
2021/01/02 06:41:56;;;;;;;9.10;0.38;;;2.10;57.80;;;;;;5027738;28;80140;-70
2021/01/02 06:44:44;;;;;;;2.28;0.30;;;2.10;57.80;;;;;;4999981;28;80983;-70
2021/01/02 06:47:32;;;;;;;1.38;0.40;;;2.10;58.00;;;;;;5008777;28;80436;-70
2021/01/02 06:50:15;;;;;;;0.88;0.30;;;2.10;58.20;;;;;;5009003;28;80632;-71
2021/01/02 06:52:48;;;;;;;1.92;0.20;;;2.10;58.20;;;;;;5026707;28;80522;-70
2021/01/02 06:55:22;;;;;;;4.50;0.50;;;2.00;58.30;;;;;;4977593;28;80973;-70
2021/01/02 06:58:25;;;;;;;2.70;0.98;;;2.00;58.50;;;;;;5027386;28;80244;-73
2021/01/02 07:00:53;;;;;;;4.75;1.75;;;2.00;58.40;;;;;;4989067;28;80852;-70
2021/01/02 07:03:41;;;;;;;4.03;2.28;;;2.00;58.20;;;;;;5004842;28;79991;-70
2021/01/02 07:06:22;;;;;;;4.28;1.27;;;1.90;58.20;;;;;;5007287;28;80648;-70
2021/01/02 07:08:58;;;;;;;5.75;2.60;;;1.90;58.20;;;;;;5007186;28;80789;-74
2021/01/02 07:11:33;;;;;;;4.28;1.20;;;1.90;58.10;;;;;;5007077;28;80604;-75
2021/01/02 07:14:08;;;;;;;2.67;0.60;;;1.90;58.00;;;;;;5007070;28;80591;-72
2021/01/02 07:16:45;;;;;;;1.17;0.40;;;1.90;58.00;;;;;;5007021;28;80511;-72
2021/01/02 07:19:32;;;;;;;2.17;0.50;;;2.00;57.90;;;;;;5007054;28;79788;-71
2021/01/02 07:22:30;;;;;;;1.05;0.38;;;2.00;57.80;;;;;;4987969;28;80686;-71
2021/01/02 07:25:07;;;;;;;1.23;0.50;;;2.00;57.80;;;;;;5003381;28;80180;-72
2021/01/02 07:27:40;;;;;;;2.67;0.60;;;2.00;57.90;;;;;;5005351;28;81100;-70
2021/01/02 07:30:13;;;;;;;2.38;0.75;;;1.90;58.00;;;;;;5006554;28;80653;-72
2021/01/02 07:32:41;;;;;;;0.98;0.30;;;2.00;58.20;;;;;;4987873;28;81332;-69
2021/01/02 07:35:10;;;;;;;1.00;0.30;;;1.90;58.30;;;;;;5006578;28;80379;-70
2021/01/02 07:37:38;;;;;;;3.42;0.60;;;1.90;58.30;;;;;;4988604;28;80597;-70
2021/01/02 07:40:07;;;;;;;1.52;0.45;;;2.00;58.40;;;;;;5006883;28;79938;-70
2021/01/02 07:42:36;;;;;;;4.47;0.80;;;2.00;58.40;;;;;;5006581;28;80524;-70
2021/01/02 07:45:08;;;;;;;3.83;1.25;;;2.00;58.60;;;;;;4988506;28;80483;-72
2021/01/02 07:47:35;;;;;;;3.07;0.60;;;1.90;58.80;;;;;;5006715;28;80388;-70
2021/01/02 07:50:12;;;;;;;2.75;0.70;;;2.00;58.80;;;;;;4988495;28;80088;-70
2021/01/02 07:52:55;;;;;;;2.42;0.60;;;2.00;58.80;;;;;;5006612;28;80611;-70
2021/01/02 07:55:23;;;;;;;3.67;0.60;;;2.00;58.90;;;;;;5006669;28;80835;-70
2021/01/02 07:57:48;;;;;;;3.47;0.50;;;2.00;59.00;;;;;;5007041;28;79692;-71
2021/01/02 08:00:15;;;;;;;6.82;1.30;;;2.00;58.90;;;;;;5024726;28;80189;-74
2021/01/02 08:02:41;;;;;;;8.55;1.10;;;2.00;58.90;;;;;;5007116;28;80563;-69
2021/01/02 08:05:11;;;;;;;14.38;4.97;;;2.00;59.20;;;;;;5026263;28;80353;-72
2021/01/02 08:07:40;;;;;;;25.17;8.95;;;2.00;59.20;;;;;;5007810;28;81103;-70
2021/01/02 08:10:10;;;;;;;13.30;4.75;;;2.00;59.30;;;;;;5007790;28;80435;-73
2021/01/02 08:12:37;;;;;;;13.30;3.88;;;2.00;59.30;;;;;;5008270;28;81882;-71
2021/01/02 08:15:04;;;;;;;7.28;2.08;;;2.10;59.30;;;;;;5007379;28;80449;-73
2021/01/02 08:17:39;;;;;;;4.68;1.27;;;2.10;59.30;;;;;;5026661;28;79702;-78
2021/01/02 08:20:07;;;;;;;5.47;1.15;;;2.10;59.30;;;;;;5026474;28;80320;-71
2021/01/02 08:22:37;;;;;;;2.85;0.65;;;2.10;59.20;;;;;;5026086;28;80361;-73
2021/01/02 08:25:14;;;;;;;3.03;0.80;;;2.20;59.00;;;;;;5007873;28;80807;-70
2021/01/02 08:27:40;;;;;;;5.40;1.05;;;2.30;58.80;;;;;;5026440;28;79732;-71
2021/01/02 08:30:09;;;;;;;3.15;1.02;;;2.30;58.50;;;;;;5007862;28;79879;-71
2021/01/02 08:32:37;;;;;;;3.28;0.88;;;2.40;58.30;;;;;;5007332;28;82656;-73
2021/01/02 08:35:19;;;;;;;5.07;1.85;;;2.40;58.10;;;;;;5025154;28;80402;-70
2021/01/02 08:37:47;;;;;;;4.70;2.13;;;2.50;57.90;;;;;;5026213;28;80558;-71
2021/01/02 08:40:14;;;;;;;9.18;2.42;;;2.60;57.70;;;;;;5008174;28;80176;-72
2021/01/02 08:42:45;;;;;;;4.95;1.25;;;2.70;57.40;;;;;;5008183;28;82746;-70
2021/01/02 08:45:33;;;;;;;2.83;0.90;;;2.90;57.20;;;;;;5007962;28;80167;-71
2021/01/02 08:48:06;;;;;;;2.58;0.65;;;3.00;56.70;;;;;;5007203;28;81094;-69
2021/01/02 08:50:32;;;;;;;;;;;3.30;56.10;;;;;;5007947;28;80780;-69
2021/01/02 08:52:58;;;;;;;2.15;0.90;;;3.40;56.10;;;;;;5031380;28;75199;-70
2021/01/02 08:55:27;;;;;;;1.95;0.60;;;3.60;55.50;;;;;;5026102;28;80075;-70
2021/01/02 08:57:53;;;;;;;4.32;0.70;;;3.80;55.10;;;;;;5002992;28;80815;-71
2021/01/02 09:00:24;;;;;;;2.20;0.60;;;3.90;54.60;;;;;;5017261;28;80538;-72
2021/01/02 09:03:06;;;;;;;7.80;0.70;;;4.00;53.70;;;;;;5008630;28;81015;-69
2021/01/02 09:05:35;;;;;;;3.63;0.47;;;4.10;53.20;;;;;;4991354;28;81451;-70
2021/01/02 09:08:07;;;;;;;2.63;0.60;;;4.30;52.80;;;;;;4991403;28;80805;-69
2021/01/02 09:10:38;;;;;;;3.25;1.10;;;4.40;52.30;;;;;;4991623;28;80726;-73
2021/01/02 09:13:05;;;;;;;3.80;2.08;;;4.40;52.10;;;;;;4992507;28;81065;-72
2021/01/02 09:15:43;;;;;;;2.25;0.50;;;4.50;52.20;;;;;;5008258;28;81495;-64
2021/01/02 09:18:10;;;;;;;1.67;0.30;;;4.60;52.00;;;;;;5008853;28;81420;-61
2021/01/02 09:20:36;;;;;;;1.70;0.68;;;4.70;51.80;;;;;;5010053;28;81604;-63
2021/01/02 09:23:02;;;;;;;2.13;0.50;;;4.70;51.60;;;;;;5009892;28;80391;-63
2021/01/02 09:25:29;;;;;;;2.30;0.25;;;4.80;51.50;;;;;;5009854;28;80504;-63
2021/01/02 09:27:55;;;;;;;2.45;0.63;;;5.00;50.90;;;;;;5013005;28;81387;-63
2021/01/02 09:30:22;;;;;;;2.83;0.93;;;5.40;50.10;;;;;;5011715;28;81260;-65
2021/01/02 09:32:48;;;;;;;3.25;0.80;;;6.00;49.10;;;;;;5012963;28;81758;-62
2021/01/02 09:35:14;;;;;;;1.90;0.80;;;6.50;47.50;;;;;;5011978;28;81399;-64
2021/01/02 09:37:43;;;;;;;2.22;0.77;;;6.60;47.40;;;;;;5012817;28;81090;-65
2021/01/02 09:40:20;;;;;;;1.65;0.47;;;6.80;46.70;;;;;;5011810;28;81495;-65
2021/01/02 09:42:46;;;;;;;2.80;0.88;;;7.40;45.40;;;;;;5012413;28;80716;-62
2021/01/02 09:45:13;;;;;;;3.17;1.20;;;8.10;44.20;;;;;;5012888;28;80548;-63
2021/01/02 09:47:39;;;;;;;4.13;0.52;;;8.40;42.90;;;;;;5013066;28;81621;-62
2021/01/02 09:50:06;;;;;;;1.33;0.55;;;8.80;41.50;;;;;;5013119;28;81329;-62
2021/01/02 09:52:33;;;;;;;1.48;0.35;;;9.20;39.90;;;;;;5013239;28;81062;-64
2021/01/02 09:54:58;;;;;;;1.42;0.40;;;9.40;39.40;;;;;;5013106;28;81245;-63
2021/01/02 09:57:24;;;;;;;2.85;0.45;;;9.40;38.70;;;;;;5012607;28;82018;-62
2021/01/02 09:59:50;;;;;;;1.95;0.63;;;9.70;38.70;;;;;;5011272;28;81134;-61
2021/01/02 10:02:16;;;;;;;2.72;0.90;;;10.30;36.60;;;;;;5010536;28;81379;-62
2021/01/02 10:04:49;;;;;;;2.38;0.63;;;9.90;36.80;;;;;;5011664;28;81684;-63
2021/01/02 10:07:16;;;;;;;4.70;0.60;;;9.50;37.90;;;;;;5012129;28;81251;-63
2021/01/02 10:09:45;;;;;;;5.88;1.60;;;10.10;37.70;;;;;;5009011;28;82633;-64
2021/01/02 10:12:12;;;;;;;5.20;0.77;;;11.00;35.90;;;;;;5010811;28;81507;-62
2021/01/02 10:14:38;;;;;;;3.30;1.33;;;12.10;34.60;;;;;;5011908;28;80872;-62
2021/01/02 10:17:05;;;;;;;1.30;0.32;;;13.00;33.00;;;;;;5029827;28;80718;-63
2021/01/02 10:19:32;;;;;;;3.55;0.70;;;13.70;31.80;;;;;;5028269;28;80452;-63
2021/01/02 10:22:03;;;;;;;2.72;0.32;;;14.10;30.60;;;;;;5028452;28;79876;-63
2021/01/02 10:24:31;;;;;;;1.30;0.17;;;14.20;30.40;;;;;;5028667;28;79803;-64
2021/01/02 10:26:57;;;;;;;1.55;0.30;;;13.40;30.50;;;;;;5028232;28;80608;-64
2021/01/02 10:29:23;;;;;;;0.73;0.20;;;13.80;30.60;;;;;;5027925;28;80116;-61
2021/01/02 10:31:50;;;;;;;2.15;0.40;;;14.60;28.80;;;;;;5027922;28;81335;-65
2021/01/02 10:34:16;;;;;;;1.23;0.32;;;15.20;28.30;;;;;;5028028;28;79744;-63
2021/01/02 10:36:46;;;;;;;1.42;0.40;;;15.90;27.20;;;;;;5028013;28;79770;-64
2021/01/02 10:39:12;;;;;;;3.50;0.40;;;16.80;26.40;;;;;;5009166;28;82163;-63
2021/01/02 10:41:38;;;;;;;2.33;0.20;;;17.40;25.60;;;;;;5028813;28;81649;-64
2021/01/02 10:44:04;;;;;;;2.08;0.52;;;18.00;25.10;;;;;;5026063;28;81490;-64
2021/01/02 10:46:30;;;;;;;1.15;0.50;;;18.30;24.50;;;;;;5028018;28;80584;-65
2021/01/02 10:48:55;;;;;;;0.90;0.25;;;18.90;24.30;;;;;;5028403;28;80168;-63
2021/01/02 10:51:21;;;;;;;3.40;0.50;;;19.50;23.40;;;;;;5027706;28;80705;-64
2021/01/02 10:53:47;;;;;;;1.73;0.50;;;18.90;24.00;;;;;;5028055;28;80076;-64
2021/01/02 10:56:18;;;;;;;0.77;0.30;;;17.20;25.40;;;;;;5027203;28;80853;-64
2021/01/02 10:58:44;;;;;;;2.15;0.80;;;16.50;26.20;;;;;;5025713;28;80867;-64
2021/01/02 11:01:12;;;;;;;1.25;0.30;;;16.70;26.20;;;;;;5027889;28;79610;-66
2021/01/02 11:03:38;;;;;;;2.35;0.65;;;16.70;25.70;;;;;;5027566;28;79669;-64
2021/01/02 11:06:08;;;;;;;2.47;0.30;;;17.60;25.00;;;;;;5027420;28;82079;-66
2021/01/02 11:08:35;;;;;;;4.70;1.50;;;18.90;23.60;;;;;;5026616;28;80144;-65
2021/01/02 11:11:01;;;;;;;3.38;0.40;;;19.80;22.90;;;;;;5027714;28;80408;-65
2021/01/02 11:13:27;;;;;;;0.80;0.20;;;20.70;22.30;;;;;;5026274;28;79949;-65
2021/01/02 11:15:53;;;;;;;0.80;0.20;;;21.10;21.50;;;;;;5027398;28;79917;-66
2021/01/02 11:18:19;;;;;;;1.60;0.60;;;20.00;22.00;;;;;;5027028;28;80343;-66
2021/01/02 11:20:48;;;;;;;1.48;0.20;;;19.30;22.80;;;;;;5027774;28;80371;-66
2021/01/02 11:23:19;;;;;;;0.65;0.13;;;18.60;23.10;;;;;;5027521;28;80307;-65
2021/01/02 11:25:46;;;;;;;2.08;0.45;;;19.00;22.80;;;;;;5027200;28;81227;-66
2021/01/02 11:28:13;;;;;;;1.33;0.38;;;18.50;23.60;;;;;;5028019;28;79728;-65
2021/01/02 11:30:39;;;;;;;2.03;0.40;;;19.80;22.90;;;;;;5026307;28;80790;-66
2021/01/02 11:33:05;;;;;;;1.23;0.40;;;20.40;21.90;;;;;;5027267;28;80136;-65
2021/01/02 11:35:31;;;;;;;1.52;0.30;;;21.00;21.40;;;;;;5027407;28;80611;-65
2021/01/02 11:37:58;;;;;;;3.15;0.95;;;22.60;20.30;;;;;;5027099;28;80220;-66
2021/01/02 11:40:24;;;;;;;0.95;0.28;;;23.90;19.40;;;;;;5027403;28;80526;-65
2021/01/02 11:42:49;;;;;;;1.52;0.50;;;25.40;18.30;;;;;;5026702;28;81163;-66
2021/01/02 11:45:18;;;;;;;1.50;0.30;;;25.90;18.00;;;;;;5027156;28;79761;-65
2021/01/02 11:47:44;;;;;;;2.38;0.50;;;26.10;17.50;;;;;;5027265;28;80271;-65
2021/01/02 11:50:11;;;;;;;1.65;0.60;;;24.50;18.30;;;;;;5026538;28;80269;-64
2021/01/02 11:52:36;;;;;;;1.40;0.55;;;24.00;18.90;;;;;;5026732;28;80238;-66
2021/01/02 11:55:04;;;;;;;1.88;0.40;;;24.70;18.50;;;;;;5025960;28;79729;-65
2021/01/02 11:57:30;;;;;;;1.20;0.43;;;25.80;17.70;;;;;;5026675;28;80025;-65
2021/01/02 11:59:56;;;;;;;2.55;0.40;;;25.70;17.60;;;;;;5026521;28;80649;-65
2021/01/02 12:02:21;;;;;;;1.60;0.30;;;25.40;17.60;;;;;;5026214;28;79860;-65
2021/01/02 12:04:47;;;;;;;1.15;0.30;;;25.80;17.10;;;;;;5026662;28;80486;-65
2021/01/02 12:07:14;;;;;;;1.40;0.57;;;25.40;16.90;;;;;;5026625;28;80419;-67
2021/01/02 12:09:39;;;;;;;1.38;0.22;;;24.30;17.90;;;;;;5007993;28;81779;-67
2021/01/02 12:12:06;;;;;;;1.17;0.50;;;25.00;17.50;;;;;;5026409;28;81222;-65
2021/01/02 12:14:35;;;;;;;1.45;0.10;;;24.00;18.40;;;;;;5026774;28;79823;-66
2021/01/02 12:17:06;;;;;;;1.85;0.40;;;24.00;17.90;;;;;;5026124;28;81359;-66
2021/01/02 12:19:32;;;;;;;1.35;0.30;;;25.20;17.40;;;;;;5026924;28;79769;-66
2021/01/02 12:22:04;;;;;;;1.27;0.47;;;26.90;16.30;;;;;;5026461;28;80000;-64
2021/01/02 12:24:30;;;;;;;2.30;0.52;;;27.90;15.80;;;;;;5025838;28;80635;-66
2021/01/02 12:27:02;;;;;;;1.52;0.30;;;28.30;15.60;;;;;;5026399;28;80128;-66
2021/01/02 12:29:29;;;;;;;3.57;0.47;;;27.20;15.80;;;;;;5026432;28;80482;-65
2021/01/02 12:31:58;;;;;;;1.88;0.38;;;27.40;16.00;;;;;;5026706;28;79744;-67
2021/01/02 12:34:27;;;;;;;1.75;0.20;;;27.20;16.10;;;;;;5026766;28;79840;-67
2021/01/02 12:36:54;;;;;;;2.97;0.68;;;26.50;16.40;;;;;;5026489;28;80236;-67
2021/01/02 12:39:24;;;;;;;1.17;0.52;;;26.00;16.90;;;;;;5007614;28;80883;-67
2021/01/02 12:41:51;;;;;;;0.85;0.22;;;25.00;17.40;;;;;;5026140;28;80140;-67
2021/01/02 12:44:16;;;;;;;1.08;0.30;;;23.40;18.80;;;;;;5007818;28;83338;-66
2021/01/02 12:46:45;;;;;;;2.33;0.40;;;21.50;19.90;;;;;;5007935;28;80231;-66
2021/01/02 12:49:13;;;;;;;1.52;0.40;;;19.70;21.20;;;;;;5022464;28;81496;-64
2021/01/02 12:51:39;;;;;;;1.67;0.60;;;18.70;22.20;;;;;;5019432;28;80020;-65
2021/01/02 12:54:05;;;;;;;1.92;0.43;;;18.40;22.70;;;;;;5020622;28;80688;-66
2021/01/02 12:56:31;;;;;;;1.10;0.20;;;18.10;22.90;;;;;;5033327;28;80143;-63
2021/01/02 12:58:57;;;;;;;1.02;0.22;;;18.00;22.90;;;;;;5007864;28;80915;-64
2021/01/02 13:01:23;;;;;;;1.52;0.17;;;18.40;22.50;;;;;;5013724;28;81552;-63
2021/01/02 13:03:49;;;;;;;2.58;0.85;;;18.50;22.50;;;;;;5012681;28;82883;-66
2021/01/02 13:06:16;;;;;;;2.00;0.30;;;18.30;22.70;;;;;;5013236;28;81557;-64
2021/01/02 13:08:42;;;;;;;0.60;0.30;;;18.20;23.00;;;;;;5013858;28;81290;-64
2021/01/02 13:11:10;;;;;;;2.42;0.38;;;17.70;23.00;;;;;;5014333;28;81155;-65
2021/01/02 13:13:35;;;;;;;2.75;0.30;;;17.10;23.60;;;;;;4995579;28;82547;-67